Time;durP1;ratioP1;P1;durP2;ratioP2;P2;SDS_P1;SDS_P2;PMS_P1;PMS_P2;Temp;Humidity;BMP_temperature;BMP_pressure;BME280_temperature;BME280_humidity;BME280_pressure;Samples;Min_cycle;Max_cycle;Signal;HPM_P1;HPM_P2
2023/03/20 00:02:26;;;;;;;;;48.25;41.00;;;;;13.44;23.91;99455.22;5048104;28;8867;-72
2023/03/20 00:04:56;;;;;;;;;37.50;33.00;;;;;13.51;23.78;99461.16;5063350;28;8856;-73
2023/03/20 00:07:26;;;;;;;;;36.25;31.50;;;;;13.52;23.47;99457.59;5064692;28;8856;-72
2023/03/20 00:09:56;;;;;;;;;36.00;32.75;;;;;13.54;23.35;99455.75;5063614;28;9870;-72
2023/03/20 00:12:26;;;;;;;;;31.75;30.50;;;;;13.51;23.38;99453.25;5064830;28;9561;-72
2023/03/20 00:14:55;;;;;;;;;30.50;29.00;;;;;13.51;23.44;99451.47;5063122;28;9027;-71
2023/03/20 00:17:24;;;;;;;;;28.50;28.25;;;;;13.58;23.19;99446.84;5048524;28;8844;-73
2023/03/20 00:19:53;;;;;;;;;31.25;26.75;;;;;13.58;23.05;99449.47;5047896;28;8858;-72
2023/03/20 00:22:23;;;;;;;;;34.75;32.00;;;;;13.65;23.18;99442.19;5044840;28;8842;-71
2023/03/20 00:24:53;;;;;;;;;49.75;40.50;;;;;13.70;23.66;99440.25;5062097;28;8950;-72
2023/03/20 00:27:22;;;;;;;;;44.00;36.50;;;;;13.75;23.45;99434.78;5065122;28;8882;-73
2023/03/20 00:29:50;;;;;;;;;40.75;34.00;;;;;13.79;23.35;99434.66;5063525;28;8917;-73
2023/03/20 00:32:19;;;;;;;;;39.25;35.75;;;;;13.82;23.30;99423.97;5073251;28;9761;-72
2023/03/20 00:34:50;;;;;;;;;34.50;30.25;;;;;13.84;23.07;99429.22;5086642;28;8844;-72
2023/03/20 00:37:19;;;;;;;;;29.50;27.25;;;;;13.85;23.00;99417.75;5086014;28;8847;-72
2023/03/20 00:39:49;;;;;;;;;34.75;32.25;;;;;13.89;23.16;99416.72;5034644;28;8890;-72
2023/03/20 00:42:21;;;;;;;;;35.50;33.25;;;;;13.91;23.24;99416.66;5087306;28;8844;-72
2023/03/20 00:44:53;;;;;;;;;36.75;33.25;;;;;13.92;23.28;99408.66;5084741;28;9079;-72
2023/03/20 00:47:26;;;;;;;;;29.50;26.00;;;;;13.91;23.26;99406.09;5087542;28;8824;-72
2023/03/20 00:49:56;;;;;;;;;27.75;26.50;;;;;13.88;23.13;99401.75;5051216;28;8998;-73
2023/03/20 00:52:27;;;;;;;;;28.20;26.20;;;;;13.92;23.20;99407.78;5119507;28;8839;-71
2023/03/20 00:54:57;;;;;;;;;27.00;23.80;;;;;13.86;23.27;99401.81;5101886;28;8859;-72
2023/03/20 00:57:29;;;;;;;;;31.80;30.40;;;;;13.86;22.95;99404.44;5087418;28;8859;-72
2023/03/20 01:00:01;;;;;;;;;23.00;22.00;;;;;13.83;22.93;99399.31;5086803;28;8856;-71
2023/03/20 01:02:30;;;;;;;;;30.20;25.20;;;;;13.81;23.28;99403.78;5085104;28;8835;-71
2023/03/20 01:05:02;;;;;;;;;18.60;17.80;;;;;13.81;23.20;99402.91;5082068;28;8863;-73
2023/03/20 01:07:31;;;;;;;;;30.80;28.40;;;;;13.77;22.98;99406.53;5065276;28;8855;-72
2023/03/20 01:10:04;;;;;;;;;25.20;24.60;;;;;13.75;23.08;99406.63;5065772;28;9734;-73
2023/03/20 01:12:33;;;;;;;;;25.80;23.40;;;;;13.74;23.25;99412.81;5064996;28;8854;-72
2023/03/20 01:15:02;;;;;;;;;27.25;25.50;;;;;13.73;23.29;99403.16;5067936;28;8879;-72
2023/03/20 01:17:31;;;;;;;;;25.00;24.60;;;;;13.76;23.52;99407.47;5119783;28;9402;-71
2023/03/20 01:20:00;;;;;;;;;30.25;28.00;;;;;13.72;23.21;99405.88;5099399;28;8857;-74
2023/03/20 01:22:29;;;;;;;;;40.25;34.25;;;;;13.67;23.87;99403.38;5067154;28;9605;-72
2023/03/20 01:24:58;;;;;;;;;33.50;32.00;;;;;13.53;23.79;99408.31;5043373;28;8974;-72
2023/03/20 01:27:28;;;;;;;;;38.00;33.50;;;;;13.44;24.16;99406.84;5027869;28;8847;-73
2023/03/20 01:29:57;;;;;;;;;33.25;31.00;;;;;13.40;24.11;99402.59;5011044;28;8972;-72
2023/03/20 01:32:26;;;;;;;;;29.75;28.00;;;;;13.43;23.86;99399.81;5027448;28;9026;-73
2023/03/20 01:34:54;;;;;;;;;27.80;24.00;;;;;13.44;23.59;99391.00;5043012;28;8968;-73
2023/03/20 01:37:27;;;;;;;;;22.80;22.80;;;;;13.46;23.81;99392.66;5047245;28;8875;-72
2023/03/20 01:40:01;;;;;;;;;26.80;22.40;;;;;13.41;23.50;99397.25;5047607;28;8949;-73
2023/03/20 01:42:35;;;;;;;;;30.00;28.25;;;;;13.44;24.21;99386.56;5015170;28;8828;-71
2023/03/20 01:45:15;;;;;;;;;52.75;40.75;;;;;13.57;25.04;99386.16;5047411;28;8831;-71
2023/03/20 01:47:45;;;;;;;;;54.75;44.25;;;;;13.50;25.57;99388.13;5014317;28;8864;-72
2023/03/20 01:50:25;;;;;;;;;52.75;44.00;;;;;13.54;25.50;99381.81;5013946;28;8864;-71
2023/03/20 01:53:21;;;;;;;;;39.50;34.25;;;;;13.38;25.02;99392.06;5033525;28;8845;-71
2023/03/20 01:56:00;;;;;;;;;30.25;28.75;;;;;13.33;24.72;99394.00;5063975;28;8851;-72
2023/03/20 01:58:51;;;;;;;;;28.00;26.50;;;;;13.28;24.86;99396.81;5087781;28;8839;-70
2023/03/20 02:01:20;;;;;;;;;29.25;27.50;;;;;13.19;25.06;99391.00;5090250;28;9044;-71
2023/03/20 02:03:52;;;;;;;;;33.00;29.50;;;;;13.07;25.24;99381.69;5121736;27;8844;-73
2023/03/20 02:06:43;;;;;;;;;34.00;31.25;;;;;13.09;24.90;99380.75;5090955;28;8867;-73
2023/03/20 02:09:25;;;;;;;;;35.50;32.75;;;;;13.11;24.69;99378.06;5081089;28;8862;-71
2023/03/20 02:11:56;;;;;;;;;29.50;27.75;;;;;13.03;24.52;99375.66;5051619;28;8866;-71
2023/03/20 02:14:27;;;;;;;;;25.50;25.50;;;;;12.98;24.61;99382.03;5083159;28;8913;-72
2023/03/20 02:17:08;;;;;;;;;28.50;27.00;;;;;12.94;24.48;99378.63;5088508;28;8860;-71
2023/03/20 02:19:58;;;;;;;;;25.00;24.60;;;;;12.93;24.57;99375.09;5104210;28;8838;-72
2023/03/20 02:23:05;;;;;;;;;29.50;27.75;;;;;12.95;24.34;99379.50;5063283;28;9103;-72
2023/03/20 02:26:15;;;;;;;;;30.75;26.75;;;;;12.92;24.34;99381.31;4987013;28;8915;-73
2023/03/20 02:29:37;;;;;;;;;30.80;27.20;;;;;12.94;24.38;99381.28;4919365;29;8883;-72
2023/03/20 02:32:35;;;;;;;;;31.00;27.50;;;;;12.89;24.32;99376.13;4921402;29;8881;-72
2023/03/20 02:35:32;;;;;;;;;29.00;24.40;;;;;12.90;24.79;99375.22;4909515;29;8882;-73
2023/03/20 02:38:29;;;;;;;;;27.75;24.00;;;;;12.83;24.79;99381.59;4925125;29;8994;-72
2023/03/20 02:41:04;;;;;;;;;23.20;19.60;;;;;12.79;24.35;99377.31;4835835;29;10003;-72
2023/03/20 02:43:43;;;;;;;;;27.50;25.75;;;;;12.82;24.50;99379.84;4842563;29;8875;-73
2023/03/20 02:46:22;;;;;;;;;27.60;24.60;;;;;12.78;24.38;99380.88;4838904;29;8899;-72
2023/03/20 02:48:56;;;;;;;;;34.00;26.75;;;;;12.73;24.75;99374.88;4853277;29;8910;-71
2023/03/20 02:51:35;;;;;;;;;25.40;23.40;;;;;12.82;24.59;99376.34;4868894;29;8879;-72
2023/03/20 02:54:11;;;;;;;;;24.40;24.20;;;;;12.73;24.73;99375.75;4865426;29;8876;-73
2023/03/20 02:56:51;;;;;;;;;28.25;28.00;;;;;12.69;24.69;99379.41;4872223;29;9690;-72
2023/03/20 02:59:29;;;;;;;;;27.25;26.75;;;;;12.64;25.14;99385.75;4871409;29;8872;-71
2023/03/20 03:02:07;;;;;;;;;32.25;27.75;;;;;12.54;25.70;99371.97;4866479;28;8887;-72
2023/03/20 03:04:39;;;;;;;;;37.75;33.75;;;;;12.39;25.80;99383.88;4967219;28;8863;-74
2023/03/20 03:07:12;;;;;;;;;31.50;30.25;;;;;12.39;25.32;99386.50;4970535;28;8888;-72
2023/03/20 03:09:49;;;;;;;;;45.00;36.25;;;;;12.51;25.66;99383.47;4981393;28;9074;-72
2023/03/20 03:12:21;;;;;;;;;36.50;33.75;;;;;12.55;25.92;99384.25;4925397;28;8857;-73
2023/03/20 03:14:54;;;;;;;;;26.50;26.50;;;;;12.57;25.43;99381.56;4969106;28;8844;-72
2023/03/20 03:17:27;;;;;;;;;44.50;38.75;;;;;12.03;27.23;99389.34;4978202;28;8880;-71
2023/03/20 03:20:03;;;;;;;;;49.75;40.50;;;;;11.16;28.25;99393.47;5043725;28;9425;-72
2023/03/20 03:22:35;;;;;;;;;37.50;35.50;;;;;10.94;28.60;99400.16;4994417;28;8857;-71
2023/03/20 03:25:06;;;;;;;;;51.25;40.50;;;;;11.14;28.80;99400.53;5062387;28;8967;-72
2023/03/20 03:27:39;;;;;;;;;58.75;48.25;;;;;11.06;30.56;99401.63;5045070;28;8854;-71
2023/03/20 03:30:16;;;;;;;;;71.00;55.00;;;;;10.53;32.52;99407.25;5025764;28;8986;-70
2023/03/20 03:32:50;;;;;;;;;66.33;53.67;;;;;10.65;32.37;99412.22;4979181;28;9029;-71
2023/03/20 03:35:23;;;;;;;;;64.75;53.00;;;;;10.86;31.54;99418.75;5063946;28;9736;-72
2023/03/20 03:37:59;;;;;;;;;71.33;56.33;;;;;11.08;31.78;99418.22;5048072;28;9839;-71
2023/03/20 03:40:35;;;;;;;;;65.00;53.25;;;;;11.18;31.31;99407.44;5038066;28;8946;-72
2023/03/20 03:43:13;;;;;;;;;65.00;53.00;;;;;11.23;31.09;99406.44;5066013;28;8839;-71
2023/03/20 03:45:49;;;;;;;;;60.00;49.00;;;;;11.26;30.52;99414.28;5065871;28;8833;-71
2023/03/20 03:48:23;;;;;;;;;57.50;49.00;;;;;11.27;30.75;99411.59;5083396;28;8877;-72
2023/03/20 03:50:56;;;;;;;;;60.75;50.50;;;;;11.27;30.42;99411.59;5088405;28;8875;-72
2023/03/20 03:53:31;;;;;;;;;60.50;50.00;;;;;11.33;30.21;99423.72;5086788;28;9709;-71
2023/03/20 03:56:04;;;;;;;;;57.75;48.50;;;;;11.31;29.90;99428.16;5019822;28;8952;-72
2023/03/20 03:58:40;;;;;;;;;64.00;51.00;;;;;11.31;30.42;99426.41;5096591;28;8840;-71
2023/03/20 04:01:12;;;;;;;;;60.75;47.50;;;;;11.26;30.08;99428.28;5086817;28;9666;-73
2023/03/20 04:03:44;;;;;;;;;58.00;47.75;;;;;11.26;29.99;99417.75;5069238;28;8971;-72
2023/03/20 04:06:15;;;;;;;;;55.75;46.75;;;;;11.23;29.88;99414.34;5070084;28;8855;-72
2023/03/20 04:08:45;;;;;;;;;57.50;45.75;;;;;11.21;30.22;99411.75;5085401;28;8831;-72
2023/03/20 04:11:17;;;;;;;;;57.75;47.00;;;;;11.25;30.19;99423.91;5086695;28;8885;-72
2023/03/20 04:13:50;;;;;;;;;60.25;48.25;;;;;11.20;30.31;99425.81;5108801;27;9634;-72
2023/03/20 04:16:22;;;;;;;;;62.75;51.25;;;;;11.12;30.61;99435.66;5082833;28;9615;-71
2023/03/20 04:18:51;;;;;;;;;55.50;46.25;;;;;11.05;30.47;99432.31;5074878;28;8952;-71
2023/03/20 04:21:21;;;;;;;;;64.25;51.25;;;;;10.98;30.33;99439.50;5049671;28;8985;-70
2023/03/20 04:23:49;;;;;;;;;58.00;47.75;;;;;10.88;30.24;99427.47;5043321;28;8844;-73
2023/03/20 04:26:20;;;;;;;;;62.00;51.25;;;;;10.86;30.49;99433.66;5068870;28;8850;-72
2023/03/20 04:28:50;;;;;;;;;71.33;56.67;;;;;10.84;30.47;99440.72;5060179;28;8853;-72
2023/03/20 04:31:22;;;;;;;;;59.25;48.75;;;;;10.81;30.63;99443.44;5075479;28;9874;-73
2023/03/20 04:34:09;;;;;;;;;59.25;49.25;;;;;10.79;30.74;99441.69;5046701;28;8848;-71
2023/03/20 04:36:45;;;;;;;;;58.00;48.75;;;;;10.77;30.93;99448.75;5061320;28;8876;-72
2023/03/20 04:39:16;;;;;;;;;61.50;47.25;;;;;10.74;30.82;99442.72;5062813;28;8846;-73
2023/03/20 04:41:47;;;;;;;;;63.75;49.75;;;;;10.74;31.07;99450.59;5061381;28;8860;-73
2023/03/20 04:44:16;;;;;;;;;57.25;47.00;;;;;10.72;31.08;99453.22;5078742;28;8980;-71
2023/03/20 04:46:47;;;;;;;;;57.75;47.50;;;;;10.69;31.10;99457.69;5062468;28;8833;-72
2023/03/20 04:49:17;;;;;;;;;110.00;102.75;;;;;10.64;30.86;99455.16;5078567;28;8846;-71
2023/03/20 04:51:46;;;;;;;;;52.00;43.75;;;;;10.57;30.78;99458.84;5074890;28;11547;-73
2023/03/20 04:54:18;;;;;;;;;57.75;47.50;;;;;10.50;31.07;99463.38;5091144;28;8848;-71
2023/03/20 04:56:49;;;;;;;;;56.25;47.25;;;;;10.49;31.12;99460.78;5104275;28;8858;-70
2023/03/20 04:59:20;;;;;;;;;57.25;47.00;;;;;10.50;31.64;99459.84;5090667;28;8855;-71
2023/03/20 05:01:51;;;;;;;;;62.00;51.75;;;;;10.49;31.52;99461.63;5111375;28;8843;-72
2023/03/20 05:04:22;;;;;;;;;68.00;52.00;;;;;10.48;32.33;99462.53;5077255;28;8850;-71
2023/03/20 05:06:51;;;;;;;;;71.33;57.00;;;;;10.53;32.70;99465.06;5085251;28;8834;-72
2023/03/20 05:09:23;;;;;;;;;72.33;59.33;;;;;10.57;32.84;99462.31;5030813;28;8964;-71
2023/03/20 05:11:55;;;;;;;;;82.25;64.00;;;;;10.60;33.16;99467.50;5123658;27;9010;-72
2023/03/20 05:14:42;;;;;;;;;72.33;57.67;;;;;10.64;33.21;99465.69;5095895;28;9794;-72
2023/03/20 05:17:25;;;;;;;;;68.67;55.67;;;;;10.68;32.98;99467.34;5039311;28;8982;-72
2023/03/20 05:20:27;;;;;;;;;89.25;74.00;;;;;10.74;33.04;99480.38;5028029;28;9178;-72
2023/03/20 05:23:31;;;;;;;;;72.67;59.33;;;;;10.76;33.27;99485.59;5014443;28;10136;-72
2023/03/20 05:26:18;;;;;;;;;75.33;58.00;;;;;10.75;32.99;99482.13;4986442;28;9440;-72
2023/03/20 05:29:07;;;;;;;;;79.50;61.25;;;;;10.76;33.52;99486.50;5019943;28;9104;-73
2023/03/20 05:31:46;;;;;;;;;78.75;62.75;;;;;10.74;33.72;99488.25;5027399;28;9542;-71
2023/03/20 05:34:26;;;;;;;;;79.33;61.33;;;;;10.85;33.47;99493.28;5017693;28;9590;-72
2023/03/20 05:37:15;;;;;;;;;76.00;59.67;;;;;10.97;33.34;99490.38;4953038;28;9469;-71
2023/03/20 05:40:14;;;;;;;;;157.25;143.75;;;;;11.12;33.30;99493.53;4916067;29;9314;-72
2023/03/20 05:57:05;;;;;;;;;78.33;61.00;;;;;10.24;34.60;99520.88;4856655;29;9262;-71
2023/03/20 05:59:53;;;;;;;;;67.67;54.67;;;;;9.56;35.09;99530.81;4909675;29;9518;-72
2023/03/20 06:02:52;;;;;;;;;73.67;59.00;;;;;9.92;34.91;99517.09;4897321;29;8962;-72
2023/03/20 06:05:47;;;;;;;;;69.33;54.67;;;;;10.50;33.88;99518.56;4894984;29;9433;-73
2023/03/20 06:08:16;;;;;;;;;69.00;56.25;;;;;10.85;33.61;99522.22;4912042;29;9144;-73
2023/03/20 06:10:45;;;;;;;;;68.33;55.00;;;;;11.10;32.68;99525.13;4869804;29;8928;-71
2023/03/20 06:13:15;;;;;;;;;74.67;59.00;;;;;11.01;32.72;99521.84;4895149;29;8950;-72
2023/03/20 06:15:44;;;;;;;;;65.67;54.00;;;;;11.29;32.75;99519.44;4964085;28;9253;-72
2023/03/20 06:18:17;;;;;;;;;73.33;58.00;;;;;11.53;32.44;99517.97;5026492;28;9032;-73
2023/03/20 06:20:46;;;;;;;;;77.00;58.67;;;;;11.84;32.08;99522.47;5051856;28;8978;-73
2023/03/20 06:23:15;;;;;;;;;72.00;57.00;;;;;12.09;32.18;99517.41;5086635;28;9247;-74
2023/03/20 06:25:44;;;;;;;;;76.67;60.67;;;;;12.25;31.18;99512.56;5104965;28;9381;-71
2023/03/20 06:28:16;;;;;;;;;74.33;58.00;;;;;12.41;31.28;99518.25;5036954;28;9313;-72
2023/03/20 06:30:46;;;;;;;;;66.33;52.00;;;;;12.57;31.17;99509.00;5098842;28;10014;-73
2023/03/20 06:33:19;;;;;;;;;76.75;61.25;;;;;12.77;30.33;99510.16;5063343;28;9538;-74
2023/03/20 06:36:04;;;;;;;;;73.33;59.67;;;;;12.60;31.02;99516.81;5067678;28;9603;-73
2023/03/20 06:38:33;;;;;;;;;72.33;56.33;;;;;12.78;30.68;99518.03;5075521;28;9466;-75
2023/03/20 06:41:08;;;;;;;;;75.67;58.33;;;;;12.95;30.37;99514.91;5087535;28;9421;-73
2023/03/20 06:43:39;;;;;;;;;72.33;58.33;;;;;13.11;30.28;99521.44;5070298;28;9405;-75
2023/03/20 06:46:09;;;;;;;;;70.67;57.33;;;;;13.28;30.11;99523.53;5070425;28;9410;-74
2023/03/20 06:48:39;;;;;;;;;72.00;56.67;;;;;13.41;30.07;99520.47;5086583;28;9872;-73
2023/03/20 06:51:08;;;;;;;;;71.67;57.00;;;;;13.53;29.83;99521.88;5086866;28;9235;-73
2023/03/20 06:53:46;;;;;;;;;69.00;55.33;;;;;13.71;29.75;99526.50;5085898;28;9023;-74
2023/03/20 06:56:19;;;;;;;;;69.67;54.67;;;;;13.74;29.63;99525.56;5042636;28;9091;-73
2023/03/20 06:58:49;;;;;;;;;66.67;53.67;;;;;13.89;29.45;99531.19;5099372;28;9717;-75
2023/03/20 07:01:19;;;;;;;;;68.67;54.00;;;;;14.00;29.41;99533.47;5066639;28;8948;-74
2023/03/20 07:03:48;;;;;;;;;73.00;56.67;;;;;14.09;29.16;99533.13;5086561;28;9109;-73
2023/03/20 07:06:22;;;;;;;;;76.75;60.50;;;;;14.09;28.91;99533.13;5108007;27;9400;-74
2023/03/20 07:08:52;;;;;;;;;70.00;57.67;;;;;14.18;28.99;99534.56;5051568;28;9723;-75
2023/03/20 07:11:22;;;;;;;;;74.33;56.33;;;;;14.07;29.00;99534.97;5077494;28;9092;-72
2023/03/20 07:13:55;;;;;;;;;68.33;55.00;;;;;13.57;29.37;99539.31;5102661;27;9418;-71
2023/03/20 07:16:38;;;;;;;;;66.00;53.00;;;;;12.94;30.82;99544.84;5087428;28;9018;-72
2023/03/20 07:19:08;;;;;;;;;71.00;56.00;;;;;13.35;30.09;99545.28;5086174;28;8879;-76
2023/03/20 07:21:41;;;;;;;;;69.25;56.00;;;;;13.69;29.85;99553.00;5077482;28;9729;-76
2023/03/20 07:24:14;;;;;;;;;71.33;56.00;;;;;13.86;29.80;99544.50;5084941;28;8970;-75
2023/03/20 07:26:43;;;;;;;;;72.67;56.00;;;;;13.87;29.68;99542.72;5062367;28;9178;-75
2023/03/20 07:29:13;;;;;;;;;66.33;52.67;;;;;13.95;29.45;99551.25;5084619;28;9261;-77
2023/03/20 07:31:43;;;;;;;;;64.00;50.75;;;;;13.72;29.77;99546.72;5103304;28;8948;-76
2023/03/20 07:34:16;;;;;;;;;65.00;53.00;;;;;13.75;29.75;99548.38;5098893;28;8939;-77
2023/03/20 07:36:46;;;;;;;;;67.25;52.75;;;;;14.07;29.50;99544.66;5078433;28;9022;-75
2023/03/20 07:39:19;;;;;;;;;61.75;51.00;;;;;14.41;29.32;99544.34;5071134;28;8862;-75
2023/03/20 07:41:58;;;;;;;;;67.00;52.50;;;;;14.73;28.75;99539.63;5114410;27;8859;-75
2023/03/20 07:44:45;;;;;;;;;64.75;53.25;;;;;14.97;28.65;99545.75;5058592;28;8886;-77
2023/03/20 07:47:14;;;;;;;;;60.75;48.00;;;;;15.10;28.52;99548.78;5053277;28;8849;-77
2023/03/20 07:49:43;;;;;;;;;65.00;52.25;;;;;15.32;28.06;99539.97;5065577;28;8875;-77
2023/03/20 07:52:12;;;;;;;;;56.00;45.75;;;;;15.40;28.16;99551.13;5082957;28;8852;-80
2023/03/20 07:54:41;;;;;;;;;61.00;50.00;;;;;15.52;27.96;99549.75;5047793;28;8963;-80
2023/03/20 07:57:10;;;;;;;;;54.50;45.75;;;;;15.34;28.17;99551.34;5099624;28;8835;-77
2023/03/20 07:59:39;;;;;;;;;60.25;47.00;;;;;15.48;28.42;99553.47;5068916;28;8909;-77
2023/03/20 08:02:14;;;;;;;;;57.00;47.00;;;;;15.70;28.32;99559.63;5086930;28;8990;-78
2023/03/20 08:04:45;;;;;;;;;54.25;46.00;;;;;15.76;28.22;99554.06;5085135;28;8864;-79
2023/03/20 08:07:14;;;;;;;;;51.00;43.00;;;;;15.54;28.29;99558.50;5067621;28;8854;-78
2023/03/20 08:09:43;;;;;;;;;50.00;41.25;;;;;15.72;28.28;99565.72;5082792;28;8948;-78
2023/03/20 08:12:12;;;;;;;;;51.25;42.25;;;;;15.89;28.30;99553.53;5066334;28;8901;-78
2023/03/20 08:14:43;;;;;;;;;47.00;38.50;;;;;15.95;28.31;99559.44;5084048;28;8981;-78
2023/03/20 08:17:14;;;;;;;;;44.25;37.00;;;;;15.58;28.43;99563.59;5085500;28;8870;-77
2023/03/20 08:19:47;;;;;;;;;44.00;37.25;;;;;15.35;29.31;99566.34;5052064;28;8904;-79
2023/03/20 08:22:16;;;;;;;;;47.00;38.25;;;;;14.55;30.38;99577.34;5082657;28;8850;-78
2023/03/20 08:24:46;;;;;;;;;42.75;37.50;;;;;14.16;31.05;99569.91;5067084;28;8846;-79
2023/03/20 08:27:16;;;;;;;;;47.75;38.50;;;;;14.29;31.21;99565.91;5064850;28;8902;-77
2023/03/20 08:29:45;;;;;;;;;47.00;37.00;;;;;14.61;30.51;99567.38;5027355;28;8980;-78
2023/03/20 08:32:15;;;;;;;;;38.00;35.00;;;;;14.63;30.62;99570.81;5011512;28;8879;-79
2023/03/20 08:34:44;;;;;;;;;48.25;40.50;;;;;13.77;32.11;99579.16;5049199;28;8847;-77
2023/03/20 08:37:14;;;;;;;;;46.75;39.75;;;;;13.03;33.85;99580.63;5027229;28;8866;-79
2023/03/20 08:39:43;;;;;;;;;51.00;43.25;;;;;13.10;33.15;99569.84;5011740;28;8916;-78
2023/03/20 08:42:12;;;;;;;;;49.00;41.75;;;;;13.20;33.19;99570.41;5011997;28;8859;-79
2023/03/20 08:44:40;;;;;;;;;51.00;43.00;;;;;13.41;33.11;99571.53;5027887;28;8882;-79
2023/03/20 08:47:10;;;;;;;;;52.00;42.50;;;;;13.91;32.57;99575.22;5044345;28;8836;-77
2023/03/20 08:49:42;;;;;;;;;53.75;43.75;;;;;14.26;32.12;99572.19;5024953;28;8857;-79
2023/03/20 08:52:11;;;;;;;;;56.25;44.75;;;;;13.50;33.28;99573.84;5038039;28;8842;-79
2023/03/20 08:54:40;;;;;;;;;46.75;39.25;;;;;12.46;35.31;99591.03;5027961;28;8868;-79
2023/03/20 08:57:09;;;;;;;;;55.50;46.25;;;;;12.58;35.24;99578.41;5028030;28;8882;-76
2023/03/20 08:59:37;;;;;;;;;58.75;47.75;;;;;12.71;35.19;99582.41;5056652;28;9698;-77
2023/03/20 09:02:07;;;;;;;;;55.25;46.00;;;;;13.08;35.05;99584.00;5070249;28;8874;-78
2023/03/20 09:04:35;;;;;;;;;59.75;47.25;;;;;13.70;34.01;99585.53;5075180;28;8907;-77
2023/03/20 09:07:07;;;;;;;;;58.50;46.75;;;;;13.64;33.92;99583.13;5066565;28;8882;-77
2023/03/20 09:09:35;;;;;;;;;57.00;47.75;;;;;13.14;34.90;99591.72;5077691;28;8864;-79
2023/03/20 09:12:06;;;;;;;;;60.50;50.00;;;;;13.72;34.04;99580.22;5095863;28;8980;-78
2023/03/20 09:14:35;;;;;;;;;57.50;48.25;;;;;14.28;33.27;99580.94;5051039;28;8858;-79
2023/03/20 09:17:04;;;;;;;;;59.25;47.25;;;;;14.54;32.32;99579.09;5117334;28;8883;-78
2023/03/20 09:19:34;;;;;;;;;56.00;47.00;;;;;14.94;31.79;99582.91;5064912;28;8919;-76
2023/03/20 09:22:03;;;;;;;;;61.25;49.00;;;;;15.22;31.24;99587.16;5062892;28;8876;-78
2023/03/20 09:24:33;;;;;;;;;58.50;48.75;;;;;15.08;31.34;99579.75;5086998;28;8894;-79
2023/03/20 09:27:02;;;;;;;;;50.25;42.50;;;;;14.37;32.61;99579.72;5087390;28;8967;-78
2023/03/20 09:29:31;;;;;;;;;61.25;48.00;;;;;15.16;31.75;99574.16;5085553;28;8952;-78
2023/03/20 09:32:01;;;;;;;;;57.25;46.50;;;;;15.25;31.40;99571.16;5086895;28;8876;-77
2023/03/20 09:34:30;;;;;;;;;56.00;46.25;;;;;15.29;31.50;99571.88;5119080;28;8970;-78
2023/03/20 09:37:02;;;;;;;;;58.75;46.75;;;;;15.35;31.80;99571.63;5085925;28;8836;-78
2023/03/20 09:39:33;;;;;;;;;56.00;46.00;;;;;15.42;31.16;99575.78;5083765;28;8862;-77
2023/03/20 09:42:14;;;;;;;;;51.75;43.50;;;;;15.84;30.38;99564.34;5084062;28;8873;-77
2023/03/20 09:44:55;;;;;;;;;51.25;42.75;;;;;16.23;30.27;99563.56;5084043;28;8865;-79
2023/03/20 09:47:33;;;;;;;;;50.75;42.25;;;;;16.38;29.74;99568.16;5067587;28;9735;-78
2023/03/20 09:50:21;;;;;;;;;52.50;44.25;;;;;16.73;29.73;99548.94;5064754;28;8861;-78
2023/03/20 09:52:58;;;;;;;;;55.75;44.25;;;;;15.71;30.39;99552.53;5077477;28;8890;-78
2023/03/20 09:55:35;;;;;;;;;42.00;34.25;;;;;14.93;31.07;99556.53;5033855;28;9033;-78
2023/03/20 09:58:12;;;;;;;;;42.50;36.75;;;;;15.74;29.76;99549.75;5025945;28;8872;-79
2023/03/20 10:00:45;;;;;;;;;45.25;37.75;;;;;15.80;29.96;99552.16;5027531;28;8898;-80
2023/03/20 10:03:21;;;;;;;;;46.25;38.75;;;;;15.21;31.18;99545.72;5027513;28;8844;-78
2023/03/20 10:05:56;;;;;;;;;41.00;34.75;;;;;15.56;30.31;99543.41;5011154;28;8867;-78
2023/03/20 10:08:29;;;;;;;;;42.00;35.50;;;;;16.06;29.57;99531.59;5043753;28;8886;-78
2023/03/20 10:11:11;;;;;;;;;37.50;33.75;;;;;16.47;28.97;99515.66;5027379;28;8867;-77
2023/03/20 10:14:17;;;;;;;;;39.75;34.25;;;;;16.74;28.66;99519.69;5010929;28;8879;-77
2023/03/20 10:17:03;;;;;;;;;35.75;33.25;;;;;16.61;28.63;99521.19;5049860;28;9024;-76
2023/03/20 10:19:42;;;;;;;;;35.75;33.25;;;;;16.16;29.41;99520.50;5047338;28;8854;-80
2023/03/20 10:22:24;;;;;;;;;42.50;37.25;;;;;16.43;29.26;99518.41;5047142;28;8969;-77
2023/03/20 10:24:59;;;;;;;;;35.50;32.50;;;;;16.72;28.56;99507.41;5010683;28;8856;-78
2023/03/20 10:27:34;;;;;;;;;33.25;32.25;;;;;16.96;28.02;99513.34;5039873;28;8874;-78
2023/03/20 10:30:23;;;;;;;;;32.25;30.75;;;;;16.44;29.09;99511.34;5046886;28;8880;-79
2023/03/20 10:33:03;;;;;;;;;32.75;29.50;;;;;16.74;28.72;99514.38;5061509;28;9593;-77
2023/03/20 10:35:39;;;;;;;;;39.50;33.50;;;;;16.92;28.17;99507.31;5054138;28;8867;-77
2023/03/20 10:38:21;;;;;;;;;43.50;36.25;;;;;17.06;27.71;99511.09;5067892;28;8862;-77
2023/03/20 10:40:51;;;;;;;;;40.75;33.75;;;;;17.37;27.88;99502.53;5087412;28;8871;-78
2023/03/20 10:43:24;;;;;;;;;43.25;36.00;;;;;17.26;27.68;99503.06;5068047;28;8870;-78
2023/03/20 10:46:00;;;;;;;;;38.75;34.50;;;;;17.14;28.14;99500.97;5067792;28;8943;-78
2023/03/20 10:48:33;;;;;;;;;38.75;33.00;;;;;16.70;28.56;99504.84;5103669;28;8859;-78
2023/03/20 10:51:03;;;;;;;;;45.00;37.25;;;;;16.65;28.70;99500.69;5088256;28;9842;-79
2023/03/20 10:53:37;;;;;;;;;35.50;31.25;;;;;16.01;28.34;99508.78;5033067;28;8884;-79
2023/03/20 10:56:10;;;;;;;;;29.75;29.00;;;;;15.68;28.98;99507.59;5101259;28;8827;-78
2023/03/20 10:58:45;;;;;;;;;33.00;30.50;;;;;15.90;29.33;99495.16;5100389;28;8866;-79
2023/03/20 11:01:14;;;;;;;;;43.50;37.00;;;;;16.40;29.23;99491.16;5104034;28;8866;-80
2023/03/20 11:03:43;;;;;;;;;44.50;37.75;;;;;17.06;29.09;99485.41;5088097;28;8880;-79
2023/03/20 11:06:20;;;;;;;;;41.75;36.75;;;;;17.52;28.32;99484.97;5088151;28;8855;-80
2023/03/20 11:08:51;;;;;;;;;46.25;37.00;;;;;17.89;27.82;99480.38;5067970;28;8878;-79
2023/03/20 11:11:25;;;;;;;;;41.25;36.00;;;;;18.27;27.71;99475.72;5045790;28;8905;-80
2023/03/20 11:13:55;;;;;;;;;42.00;35.50;;;;;18.59;26.93;99470.44;5059881;28;8990;-80
2023/03/20 11:16:30;;;;;;;;;45.00;38.25;;;;;18.85;26.62;99471.66;5066591;28;8940;-78
2023/03/20 11:19:06;;;;;;;;;47.25;39.50;;;;;17.83;27.88;99473.59;5066123;28;8886;-79
2023/03/20 11:21:45;;;;;;;;;41.75;35.25;;;;;18.25;28.02;99461.66;5066049;28;9647;-80
2023/03/20 11:24:27;;;;;;;;;35.50;32.25;;;;;18.51;26.72;99467.34;5065838;28;8892;-78
2023/03/20 11:27:06;;;;;;;;;42.25;36.00;;;;;17.27;28.99;99462.28;5066050;28;9037;-81
2023/03/20 11:29:37;;;;;;;;;44.50;36.50;;;;;17.69;28.26;99461.03;5065842;28;8886;-79
2023/03/20 11:32:16;;;;;;;;;38.00;33.75;;;;;18.30;27.44;99459.56;5048396;28;8949;-79
2023/03/20 11:34:45;;;;;;;;;40.50;34.25;;;;;17.94;27.61;99462.38;5051919;28;8855;-79
2023/03/20 11:37:24;;;;;;;;;32.25;31.25;;;;;18.66;26.75;99449.66;5065298;28;8944;-79
2023/03/20 11:39:58;;;;;;;;;34.00;31.50;;;;;18.94;26.00;99441.84;5065663;28;8969;-79
2023/03/20 11:42:29;;;;;;;;;34.25;32.50;;;;;19.31;25.78;99445.03;5034139;28;8917;-78
2023/03/20 11:45:01;;;;;;;;;33.50;31.50;;;;;19.51;25.86;99440.31;5029601;28;8936;-80
2023/03/20 11:47:34;;;;;;;;;32.50;29.75;;;;;17.89;26.52;99446.69;5028309;28;8893;-79
2023/03/20 11:50:06;;;;;;;;;28.25;26.25;;;;;18.10;26.71;99439.41;5061995;28;8918;-79
2023/03/20 11:52:37;;;;;;;;;29.00;27.50;;;;;18.05;26.03;99429.94;5045325;28;8854;-80
2023/03/20 11:55:23;;;;;;;;;32.50;30.00;;;;;17.84;26.43;99431.91;5012252;28;8846;-79
2023/03/20 11:57:57;;;;;;;;;34.75;32.00;;;;;17.24;27.42;99427.84;5044914;28;8865;-77
2023/03/20 12:00:30;;;;;;;;;28.25;28.25;;;;;17.92;26.81;99425.22;5062008;28;9690;-79
2023/03/20 12:02:59;;;;;;;;;31.75;30.00;;;;;17.84;26.87;99418.63;4995181;28;8862;-80
2023/03/20 12:05:32;;;;;;;;;30.50;30.00;;;;;18.00;27.18;99416.00;5044918;28;8870;-79
2023/03/20 12:08:07;;;;;;;;;32.75;31.00;;;;;18.54;26.78;99422.78;5044569;28;8931;-79
2023/03/20 12:10:41;;;;;;;;;28.50;27.50;;;;;19.09;25.95;99418.78;4960736;28;9741;-79
2023/03/20 12:13:17;;;;;;;;;29.75;29.50;;;;;19.54;24.79;99412.63;5037626;28;8870;-78